Time;durP1;ratioP1;P1;durP2;ratioP2;P2;SDS_P1;SDS_P2;PMS_P1;PMS_P2;Temp;Humidity;BMP_temperature;BMP_pressure;BME280_temperature;BME280_humidity;BME280_pressure;Samples;Min_cycle;Max_cycle;Signal;HPM_P1;HPM_P2
2022/11/25 00:01:25;;;;;;;10.50;3.30;;;7.60;99.90;;;;;;4968854;28;20534;-78
2022/11/25 00:03:52;;;;;;;11.35;2.83;;;7.60;99.90;;;;;;4992423;28;20042;-78
2022/11/25 00:06:18;;;;;;;14.52;2.38;;;7.60;99.90;;;;;;4985015;28;20173;-79
2022/11/25 00:08:45;;;;;;;8.10;2.53;;;7.70;99.90;;;;;;4992697;28;20129;-78
2022/11/25 00:11:14;;;;;;;11.75;2.72;;;7.70;99.90;;;;;;4968555;28;20402;-78
2022/11/25 00:13:41;;;;;;;11.40;2.35;;;8.40;99.90;;;;;;4987190;28;20050;-78
2022/11/25 00:16:18;;;;;;;9.80;2.72;;;7.70;99.90;;;;;;4952738;28;20475;-79
2022/11/25 00:18:48;;;;;;;10.43;2.38;;;7.80;99.90;;;;;;4973689;28;20064;-79
2022/11/25 00:21:16;;;;;;;14.30;2.17;;;7.80;99.90;;;;;;4979921;28;20070;-78
2022/11/25 00:23:43;;;;;;;8.60;2.70;;;7.80;99.90;;;;;;4985316;28;20038;-78
2022/11/25 00:26:14;;;;;;;17.67;3.38;;;7.70;99.90;;;;;;4964100;28;20109;-78
2022/11/25 00:28:41;;;;;;;7.85;2.15;;;7.80;99.90;;;;;;4984413;28;20042;-78
2022/11/25 00:31:22;;;;;;;11.77;2.65;;;8.00;99.90;;;;;;4986870;28;20482;-79
2022/11/25 00:33:49;;;;;;;8.18;2.92;;;7.80;99.90;;;;;;4982378;28;20056;-78
2022/11/25 00:36:19;;;;;;;10.40;2.55;;;7.90;99.90;;;;;;4963784;28;20034;-78
2022/11/25 00:38:45;;;;;;;10.40;2.60;;;7.80;99.90;;;;;;4989841;28;20041;-78
2022/11/25 00:46:41;;;;;;;7.30;1.90;;;7.80;99.90;;;;;;4973139;28;20050;-79
2022/11/25 00:49:06;;;;;;;10.63;2.85;;;7.90;99.90;;;;;;4984473;28;20039;-78
2022/11/25 00:51:32;;;;;;;9.23;2.50;;;7.80;99.90;;;;;;4954183;28;20038;-79
2022/11/25 00:53:58;;;;;;;14.32;2.95;;;7.80;99.90;;;;;;4968314;28;20043;-79
2022/11/25 00:56:23;;;;;;;7.05;2.22;;;7.80;99.90;;;;;;4991285;28;20054;-79
2022/11/25 00:58:51;;;;;;;12.67;3.13;;;7.70;99.90;;;;;;4992042;28;20042;-79
2022/11/25 01:01:17;;;;;;;11.48;2.35;;;7.70;99.90;;;;;;4983658;28;20074;-79
2022/11/25 01:03:43;;;;;;;14.47;3.10;;;7.70;99.90;;;;;;4963233;28;20067;-78
2022/11/25 01:06:10;;;;;;;11.60;3.13;;;7.70;99.90;;;;;;4963762;28;20486;-78
2022/11/25 01:08:37;;;;;;;10.00;2.67;;;7.70;99.90;;;;;;4984154;28;20290;-78
2022/11/25 01:11:05;;;;;;;12.20;3.45;;;7.70;99.90;;;;;;4963049;28;20129;-79
2022/11/25 01:13:31;;;;;;;14.80;2.67;;;7.80;99.90;;;;;;4968218;28;20122;-78
2022/11/25 01:16:00;;;;;;;6.53;2.58;;;7.70;99.90;;;;;;4965601;28;20069;-79
2022/11/25 01:18:27;;;;;;;11.95;2.97;;;7.90;99.90;;;;;;4972496;28;20517;-78
2022/11/25 01:20:53;;;;;;;12.82;2.75;;;8.10;99.90;;;;;;4983642;28;20045;-78
2022/11/25 01:23:18;;;;;;;13.57;3.17;;;7.70;99.90;;;;;;4990724;28;20046;-78
2022/11/25 01:25:44;;;;;;;21.47;3.13;;;7.60;99.90;;;;;;4986609;28;20069;-78
2022/11/25 01:28:09;;;;;;;14.90;2.93;;;8.10;99.90;;;;;;4990970;28;20485;-78
2022/11/25 01:30:35;;;;;;;14.27;3.03;;;7.50;99.90;;;;;;4969959;28;20070;-79
2022/11/25 01:33:01;;;;;;;19.53;3.97;;;7.60;99.90;;;;;;4969684;28;20042;-79
2022/11/25 01:35:26;;;;;;;11.30;3.30;;;7.50;99.90;;;;;;4971842;28;20286;-79
2022/11/25 01:37:52;;;;;;;15.47;3.10;;;7.50;99.90;;;;;;4967577;28;20050;-79
2022/11/25 01:40:18;;;;;;;16.73;4.63;;;7.50;99.90;;;;;;4990679;28;20042;-78
2022/11/25 01:42:45;;;;;;;15.77;3.03;;;7.50;99.90;;;;;;4967285;28;20405;-78
2022/11/25 01:45:24;;;;;;;17.15;3.25;;;7.50;99.90;;;;;;4983138;28;20062;-79
2022/11/25 01:47:55;;;;;;;11.95;2.72;;;7.50;99.90;;;;;;4990771;28;20042;-79
2022/11/25 01:50:25;;;;;;;11.63;3.17;;;7.50;99.90;;;;;;4971452;28;20066;-79
2022/11/25 01:52:54;;;;;;;14.05;3.47;;;7.50;99.90;;;;;;4983408;28;20053;-79
2022/11/25 01:55:28;;;;;;;16.88;3.30;;;8.20;99.90;;;;;;4980451;28;20053;-79
2022/11/25 01:58:17;;;;;;;8.88;2.53;;;7.50;99.90;;;;;;4990704;28;20042;-79
2022/11/25 02:00:50;;;;;;;13.18;3.22;;;7.50;99.90;;;;;;4986823;28;20081;-79
2022/11/25 02:03:25;;;;;;;11.48;3.30;;;7.60;99.90;;;;;;4966071;28;20041;-79
2022/11/25 02:06:05;;;;;;;11.63;3.08;;;7.70;99.90;;;;;;4987987;28;20093;-79
2022/11/25 02:08:32;;;;;;;9.65;2.83;;;7.60;99.90;;;;;;4964367;28;20105;-78
2022/11/25 02:11:00;;;;;;;13.90;3.70;;;8.10;99.90;;;;;;4980912;28;20507;-78
2022/11/25 02:13:27;;;;;;;12.93;2.92;;;7.70;99.90;;;;;;4985126;28;20479;-78
2022/11/25 02:15:53;;;;;;;13.60;3.28;;;7.70;99.90;;;;;;4980817;28;20129;-77
2022/11/25 02:18:18;;;;;;;13.17;3.33;;;7.60;99.90;;;;;;4980788;28;20117;-77
2022/11/25 02:20:44;;;;;;;15.70;3.67;;;7.60;99.90;;;;;;4990356;28;20043;-77
2022/11/25 02:23:39;;;;;;;10.30;3.20;;;7.70;99.90;;;;;;4964902;28;20286;-77
2022/11/25 02:26:05;;;;;;;9.10;3.30;;;7.70;99.90;;;;;;4958689;28;20281;-77
2022/11/25 02:28:31;;;;;;;11.15;3.30;;;7.60;99.90;;;;;;4982662;28;20049;-77
2022/11/25 02:30:58;;;;;;;15.45;3.47;;;7.60;99.90;;;;;;4980468;28;20156;-77
2022/11/25 02:33:24;;;;;;;;;;;7.60;99.90;;;;;;4990217;28;20043;-77
2022/11/25 02:35:57;;;;;;;13.20;3.58;;;7.70;99.90;;;;;;4977948;28;19940;-76
2022/11/25 02:38:26;;;;;;;17.02;3.50;;;7.60;99.90;;;;;;4982515;28;20065;-76
2022/11/25 02:40:58;;;;;;;15.60;3.88;;;7.60;99.90;;;;;;4989932;28;20041;-76
2022/11/25 02:43:26;;;;;;;17.17;3.42;;;7.50;99.90;;;;;;4989973;28;20053;-76
2022/11/25 02:45:58;;;;;;;22.42;3.78;;;7.60;99.90;;;;;;4967014;28;20561;-76
2022/11/25 02:48:25;;;;;;;14.05;4.07;;;7.60;99.90;;;;;;4961585;28;20046;-76
2022/11/25 02:50:51;;;;;;;18.38;4.10;;;7.50;99.90;;;;;;4983110;28;20805;-76
2022/11/25 02:53:18;;;;;;;12.77;3.15;;;7.60;99.90;;;;;;4977804;28;20046;-77
2022/11/25 02:55:43;;;;;;;;;;;7.50;99.90;;;;;;4990261;28;20050;-77
2022/11/25 02:58:09;;;;;;;11.75;3.38;;;7.50;99.90;;;;;;4964290;28;19939;-77
2022/11/25 03:00:35;;;;;;;14.38;3.90;;;7.50;99.90;;;;;;4962018;28;20048;-77
2022/11/25 03:03:01;;;;;;;19.15;4.03;;;8.30;99.90;;;;;;4989826;28;20506;-77
2022/11/25 03:05:27;;;;;;;19.00;4.22;;;7.60;99.90;;;;;;4987611;28;20092;-77
2022/11/25 03:07:52;;;;;;;15.30;3.95;;;7.60;99.90;;;;;;4946021;28;20708;-76
2022/11/25 03:10:18;;;;;;;17.53;4.20;;;7.60;99.90;;;;;;4971412;28;20121;-77
2022/11/25 03:12:44;;;;;;;12.23;4.27;;;7.60;99.90;;;;;;4986583;28;20042;-77
2022/11/25 03:15:10;;;;;;;14.90;3.80;;;8.00;99.90;;;;;;4968341;28;20277;-77
2022/11/25 03:17:36;;;;;;;16.52;4.82;;;7.80;99.90;;;;;;4985761;28;20046;-77
2022/11/25 03:20:02;;;;;;;15.00;4.20;;;7.60;99.90;;;;;;4993469;28;20113;-77
2022/11/25 03:22:27;;;;;;;20.40;5.13;;;7.60;99.90;;;;;;4965539;28;20042;-77
2022/11/25 03:24:53;;;;;;;17.70;5.10;;;7.70;99.90;;;;;;4986069;28;20096;-77
2022/11/25 03:27:18;;;;;;;15.43;4.00;;;7.70;99.90;;;;;;4946698;28;20047;-77
2022/11/25 03:29:44;;;;;;;12.57;4.27;;;7.70;99.90;;;;;;4967770;28;20046;-77
2022/11/25 03:32:10;;;;;;;15.63;4.13;;;7.70;99.90;;;;;;4993017;28;20281;-77
2022/11/25 03:34:35;;;;;;;20.97;4.40;;;7.70;99.90;;;;;;4993188;28;20500;-77
2022/11/25 03:37:01;;;;;;;15.47;5.03;;;8.60;99.90;;;;;;4993241;28;20284;-77
2022/11/25 03:39:27;;;;;;;16.83;5.20;;;7.80;99.90;;;;;;4993155;28;20773;-77
2022/11/25 03:41:52;;;;;;;18.33;4.03;;;7.80;99.90;;;;;;4993313;28;20469;-77
2022/11/25 03:44:18;;;;;;;11.30;4.80;;;7.80;99.90;;;;;;4972245;28;20475;-77
2022/11/25 03:46:44;;;;;;;11.83;4.67;;;7.80;99.90;;;;;;4969634;28;20561;-77
2022/11/25 03:49:09;;;;;;;10.60;4.07;;;7.80;99.90;;;;;;4983668;28;20386;-77
2022/11/25 03:51:35;;;;;;;18.43;5.80;;;7.80;99.90;;;;;;4992646;28;20046;-77
2022/11/25 03:54:01;;;;;;;14.27;5.60;;;7.80;99.90;;;;;;4992765;28;20121;-76
2022/11/25 03:56:26;;;;;;;18.67;4.97;;;8.00;99.90;;;;;;4964149;28;20058;-77
2022/11/25 03:58:52;;;;;;;19.50;6.17;;;7.80;99.90;;;;;;4964747;28;20336;-77
2022/11/25 04:01:18;;;;;;;19.20;5.13;;;7.90;99.90;;;;;;4966916;28;20310;-77
2022/11/25 04:03:43;;;;;;;15.30;5.50;;;7.80;99.90;;;;;;4987360;28;20463;-77
2022/11/25 04:06:09;;;;;;;20.03;6.40;;;7.80;99.90;;;;;;4971711;28;20297;-77
2022/11/25 04:08:35;;;;;;;21.50;7.67;;;7.80;99.90;;;;;;4966378;28;20285;-77
2022/11/25 04:11:00;;;;;;;18.40;6.50;;;7.80;99.90;;;;;;4992810;28;20038;-77
2022/11/25 04:13:26;;;;;;;22.43;5.77;;;7.80;99.90;;;;;;4991948;28;20302;-77
2022/11/25 04:15:52;;;;;;;14.80;5.50;;;7.80;99.90;;;;;;4992310;28;20030;-77
2022/11/25 04:18:19;;;;;;;25.47;6.07;;;7.80;99.90;;;;;;4979983;28;20048;-77
2022/11/25 04:20:45;;;;;;;18.10;6.00;;;7.90;99.90;;;;;;4987292;28;20860;-77
2022/11/25 04:23:12;;;;;;;25.83;6.57;;;7.80;99.90;;;;;;4960267;28;20045;-77
2022/11/25 04:25:38;;;;;;;18.45;6.43;;;7.80;99.90;;;;;;4991751;28;20054;-77
2022/11/25 04:28:04;;;;;;;21.83;6.25;;;7.90;99.90;;;;;;4987050;28;20405;-77
2022/11/25 04:30:31;;;;;;;19.67;6.60;;;7.80;99.90;;;;;;4991739;28;20046;-77
2022/11/25 04:32:56;;;;;;;17.52;5.75;;;7.90;99.90;;;;;;4992064;28;20180;-77
2022/11/25 04:35:22;;;;;;;18.20;6.18;;;7.90;99.90;;;;;;4982869;28;20047;-77
2022/11/25 04:37:48;;;;;;;22.50;6.57;;;8.00;99.90;;;;;;4990720;28;20042;-77
2022/11/25 04:40:14;;;;;;;19.60;7.00;;;7.90;99.90;;;;;;4965054;28;20045;-77
2022/11/25 04:42:39;;;;;;;16.33;6.25;;;7.90;99.90;;;;;;4978427;28;20285;-77
2022/11/25 04:45:09;;;;;;;18.67;7.00;;;7.80;99.90;;;;;;4990787;28;20397;-77
2022/11/25 04:47:36;;;;;;;13.13;6.18;;;7.80;99.90;;;;;;4990581;28;20841;-77
2022/11/25 04:50:03;;;;;;;15.43;6.18;;;8.30;99.90;;;;;;4986330;28;20034;-77
2022/11/25 04:52:29;;;;;;;26.35;8.05;;;7.90;99.90;;;;;;4983686;28;20039;-77
2022/11/25 04:54:54;;;;;;;18.53;6.70;;;7.90;99.90;;;;;;4968307;28;20092;-77
2022/11/25 04:57:21;;;;;;;17.47;7.30;;;8.70;99.90;;;;;;4970437;28;20116;-77
2022/11/25 04:59:46;;;;;;;19.30;7.15;;;7.80;99.90;;;;;;4983921;28;20290;-77
2022/11/25 05:02:30;;;;;;;24.80;7.68;;;7.80;99.90;;;;;;4963218;28;20058;-77
2022/11/25 05:04:56;;;;;;;26.13;7.78;;;8.40;99.90;;;;;;4965724;28;20264;-77
2022/11/25 05:07:24;;;;;;;19.17;7.70;;;7.80;99.90;;;;;;4963019;28;20034;-77
2022/11/25 05:09:50;;;;;;;24.33;7.70;;;7.80;99.90;;;;;;4976957;28;20030;-77
2022/11/25 05:12:19;;;;;;;25.67;7.83;;;7.80;99.90;;;;;;4963215;28;20034;-77
2022/11/25 05:14:45;;;;;;;17.15;6.93;;;7.80;99.90;;;;;;4986032;28;20650;-77
2022/11/25 05:17:17;;;;;;;14.85;5.88;;;7.80;99.90;;;;;;4958648;28;20030;-78
2022/11/25 05:19:43;;;;;;;27.08;8.63;;;7.80;99.90;;;;;;4966105;28;20042;-78
2022/11/25 05:22:14;;;;;;;22.55;7.97;;;7.80;99.90;;;;;;4965601;28;20118;-78
2022/11/25 05:24:39;;;;;;;22.20;8.07;;;7.80;99.90;;;;;;4990657;28;20034;-78
2022/11/25 05:27:05;;;;;;;15.37;7.07;;;7.80;99.90;;;;;;4965585;28;20038;-77
2022/11/25 05:29:31;;;;;;;21.33;8.38;;;7.80;99.90;;;;;;4978696;28;20129;-80
2022/11/25 05:31:57;;;;;;;26.67;7.93;;;8.20;99.90;;;;;;4986676;28;20741;-79
2022/11/25 05:34:23;;;;;;;23.35;7.47;;;7.80;99.90;;;;;;4991091;28;20118;-79
2022/11/25 05:36:48;;;;;;;20.13;8.03;;;7.80;99.90;;;;;;4991423;28;20096;-79
2022/11/25 05:39:14;;;;;;;21.25;7.82;;;7.80;99.90;;;;;;4990181;28;20054;-79
2022/11/25 05:41:39;;;;;;;26.13;8.33;;;7.90;99.90;;;;;;4991170;28;20397;-79
2022/11/25 05:44:05;;;;;;;26.13;8.43;;;7.80;99.90;;;;;;4991208;28;20045;-79
2022/11/25 05:46:31;;;;;;;24.87;8.23;;;7.80;99.90;;;;;;4983525;28;20419;-77
2022/11/25 05:48:57;;;;;;;21.38;8.77;;;7.90;99.90;;;;;;4985902;28;20285;-77
2022/11/25 05:51:24;;;;;;;21.30;8.95;;;7.80;99.90;;;;;;4967320;28;20046;-77
2022/11/25 05:53:51;;;;;;;20.88;8.30;;;7.80;99.90;;;;;;4978275;28;20054;-77
2022/11/25 05:56:17;;;;;;;23.17;8.75;;;7.80;99.90;;;;;;4969508;28;20125;-80
2022/11/25 05:58:42;;;;;;;18.42;7.55;;;7.80;99.90;;;;;;4964276;28;20081;-77
2022/11/25 06:01:11;;;;;;;21.58;7.72;;;7.90;99.90;;;;;;4985966;28;20034;-77
2022/11/25 06:03:37;;;;;;;20.10;8.77;;;7.90;99.90;;;;;;4990401;28;20038;-77
2022/11/25 06:06:03;;;;;;;17.98;7.10;;;7.90;99.90;;;;;;4985870;28;20049;-77
2022/11/25 06:08:29;;;;;;;23.33;8.23;;;7.90;99.90;;;;;;4964683;28;20042;-77
2022/11/25 06:10:55;;;;;;;27.27;8.85;;;7.90;99.90;;;;;;4961980;28;20050;-77
2022/11/25 06:13:21;;;;;;;24.23;8.37;;;8.30;99.90;;;;;;4990493;28;20475;-77
2022/11/25 06:15:47;;;;;;;25.50;8.70;;;7.90;99.90;;;;;;4982841;28;20038;-78
2022/11/25 06:18:15;;;;;;;26.13;8.68;;;7.90;99.90;;;;;;4978721;28;20043;-78
2022/11/25 06:20:41;;;;;;;19.98;8.75;;;7.90;99.90;;;;;;4973399;28;20066;-78
2022/11/25 06:23:08;;;;;;;18.42;7.75;;;7.90;99.90;;;;;;4990355;28;20101;-77
2022/11/25 06:25:35;;;;;;;24.35;8.32;;;7.90;99.90;;;;;;4981169;28;20552;-78
2022/11/25 06:28:02;;;;;;;27.63;8.88;;;7.90;99.90;;;;;;4980714;28;20097;-78
2022/11/25 06:30:28;;;;;;;21.38;7.38;;;8.30;99.90;;;;;;4964738;28;20034;-78
2022/11/25 06:32:54;;;;;;;16.67;6.65;;;8.00;99.90;;;;;;4973810;28;20077;-77
2022/11/25 06:35:20;;;;;;;20.23;7.32;;;8.00;99.90;;;;;;4990158;28;20102;-77
2022/11/25 06:37:46;;;;;;;22.25;8.30;;;8.00;99.90;;;;;;4967232;28;20048;-78
2022/11/25 06:40:12;;;;;;;21.92;7.50;;;8.00;99.90;;;;;;4980818;28;20121;-77
2022/11/25 06:42:38;;;;;;;19.88;7.50;;;8.00;99.90;;;;;;4962562;28;20042;-77
2022/11/25 06:45:05;;;;;;;25.77;8.18;;;8.00;99.90;;;;;;4973820;28;20038;-77
2022/11/25 06:47:30;;;;;;;;;;;7.90;99.90;;;;;;4951606;28;20038;-77
2022/11/25 06:49:56;;;;;;;20.45;6.80;;;7.90;99.90;;;;;;4986191;28;19941;-78
2022/11/25 06:52:22;;;;;;;16.63;7.03;;;8.00;99.90;;;;;;4984303;28;20121;-77
2022/11/25 06:54:48;;;;;;;23.77;7.00;;;9.00;99.90;;;;;;4954723;28;20363;-77
2022/11/25 06:57:17;;;;;;;27.02;7.28;;;7.90;99.90;;;;;;4980038;28;20318;-78
2022/11/25 06:59:43;;;;;;;18.20;6.47;;;7.90;99.90;;;;;;4993594;28;20045;-78
2022/11/25 07:02:11;;;;;;;18.20;6.55;;;7.90;99.90;;;;;;4989474;28;20490;-78
2022/11/25 07:04:37;;;;;;;18.75;6.05;;;7.90;99.90;;;;;;4993892;28;20044;-78
2022/11/25 07:07:03;;;;;;;23.35;6.78;;;7.90;99.90;;;;;;4967790;28;20045;-77
2022/11/25 07:09:29;;;;;;;22.45;6.35;;;7.90;99.90;;;;;;4993564;28;20042;-77
2022/11/25 07:11:55;;;;;;;16.88;5.20;;;7.90;99.90;;;;;;4970195;28;20042;-77
2022/11/25 07:14:21;;;;;;;16.53;6.37;;;7.90;99.90;;;;;;4993489;28;20121;-78
2022/11/25 07:16:46;;;;;;;13.85;5.68;;;8.00;99.90;;;;;;4970030;28;20285;-78
2022/11/25 07:19:15;;;;;;;14.10;5.30;;;8.00;99.90;;;;;;4993921;28;20045;-78
2022/11/25 07:21:44;;;;;;;17.85;5.82;;;8.00;99.90;;;;;;4974558;28;20345;-78
2022/11/25 07:24:11;;;;;;;11.63;4.80;;;8.00;99.90;;;;;;4994385;28;20454;-76
2022/11/25 07:26:38;;;;;;;15.43;4.63;;;8.00;99.90;;;;;;4983875;28;20043;-76
2022/11/25 07:29:08;;;;;;;16.02;5.38;;;8.00;99.90;;;;;;4983629;28;20862;-75
2022/11/25 07:31:36;;;;;;;12.10;4.85;;;8.10;99.90;;;;;;4988263;28;20042;-75
2022/11/25 07:34:20;;;;;;;12.43;5.47;;;8.00;99.90;;;;;;4988200;28;20117;-75
2022/11/25 07:36:47;;;;;;;13.50;4.68;;;8.00;99.90;;;;;;4977452;28;20051;-75
2022/11/25 07:39:17;;;;;;;15.73;4.53;;;8.00;99.90;;;;;;4981225;28;20418;-76
2022/11/25 07:41:43;;;;;;;17.15;5.22;;;8.00;99.90;;;;;;4986604;28;20113;-75
2022/11/25 07:44:11;;;;;;;10.77;3.33;;;8.00;99.90;;;;;;4973602;28;20042;-76
2022/11/25 07:46:43;;;;;;;9.52;3.22;;;7.90;99.90;;;;;;4986321;28;20034;-75
2022/11/25 07:49:20;;;;;;;14.95;4.10;;;7.90;99.90;;;;;;4982666;28;20490;-75
2022/11/25 07:51:50;;;;;;;;;;;7.90;99.90;;;;;;4974469;28;20117;-75
2022/11/25 07:54:16;;;;;;;19.05;3.97;;;8.00;99.90;;;;;;4978167;28;19922;-75
2022/11/25 07:56:43;;;;;;;10.38;3.60;;;8.00;99.90;;;;;;4985291;28;20073;-75
2022/11/25 07:59:13;;;;;;;9.90;3.30;;;8.00;99.90;;;;;;4992749;28;20651;-75
2022/11/25 08:01:42;;;;;;;12.18;3.50;;;8.10;99.90;;;;;;4981747;28;20042;-75
2022/11/25 08:04:09;;;;;;;8.75;3.10;;;8.20;99.90;;;;;;4987544;28;20504;-75
2022/11/25 08:06:41;;;;;;;9.77;3.10;;;8.10;99.90;;;;;;4982827;28;20053;-75
2022/11/25 08:09:09;;;;;;;8.45;2.80;;;8.10;99.90;;;;;;4987514;28;20049;-75
2022/11/25 08:11:34;;;;;;;11.02;2.67;;;8.20;99.90;;;;;;4964149;28;20046;-74
2022/11/25 08:14:00;;;;;;;10.18;2.80;;;8.30;99.90;;;;;;4984901;28;20479;-74
2022/11/25 08:16:29;;;;;;;8.10;2.67;;;8.30;99.90;;;;;;4988416;28;20053;-74
2022/11/25 08:18:56;;;;;;;12.32;3.22;;;8.40;99.90;;;;;;4985567;28;20113;-75
2022/11/25 08:21:22;;;;;;;10.00;2.88;;;8.60;99.90;;;;;;4992230;28;20044;-74
2022/11/25 08:23:48;;;;;;;9.68;3.78;;;8.80;99.90;;;;;;4980126;28;20046;-74
2022/11/25 08:26:16;;;;;;;10.10;2.60;;;9.00;99.90;;;;;;4971281;28;20046;-74
2022/11/25 08:28:43;;;;;;;9.50;3.28;;;9.20;99.90;;;;;;4982801;28;20030;-75
2022/11/25 08:31:12;;;;;;;10.02;2.92;;;9.30;99.90;;;;;;4982466;28;20518;-75
2022/11/25 08:33:38;;;;;;;8.40;3.20;;;9.40;99.90;;;;;;4968487;28;20057;-75
2022/11/25 08:36:05;;;;;;;9.65;3.55;;;9.70;99.90;;;;;;4963807;28;20038;-74
2022/11/25 08:38:31;;;;;;;10.07;3.38;;;10.00;99.90;;;;;;4986955;28;20070;-75
2022/11/25 08:40:57;;;;;;;5.68;2.08;;;10.20;99.90;;;;;;4966063;28;20138;-75
2022/11/25 08:43:24;;;;;;;6.05;2.28;;;10.40;99.90;;;;;;4970800;28;20046;-75
2022/11/25 08:45:50;;;;;;;8.07;3.10;;;10.50;99.90;;;;;;4965860;28;20046;-74
2022/11/25 08:48:18;;;;;;;10.27;2.58;;;10.50;99.90;;;;;;4970897;28;20034;-74
2022/11/25 08:50:49;;;;;;;7.68;2.40;;;10.60;99.90;;;;;;4982784;28;20046;-75
2022/11/25 08:53:15;;;;;;;6.90;2.80;;;10.80;99.90;;;;;;4970927;28;20060;-77
2022/11/25 08:55:41;;;;;;;;;;;10.90;99.90;;;;;;4985481;28;20106;-76
2022/11/25 08:58:10;;;;;;;5.97;2.50;;;11.10;99.90;;;;;;4966053;28;20453;-74
2022/11/25 09:00:43;;;;;;;7.38;2.58;;;11.20;99.90;;;;;;4984428;28;20042;-75
2022/11/25 09:03:09;;;;;;;8.20;3.15;;;11.00;99.90;;;;;;4974252;28;20503;-75
2022/11/25 09:05:38;;;;;;;;;;;11.00;99.90;;;;;;4970950;28;20046;-75
2022/11/25 09:08:05;;;;;;;6.43;2.67;;;11.20;99.90;;;;;;4981907;28;19918;-74
2022/11/25 09:10:31;;;;;;;7.70;2.22;;;11.40;99.90;;;;;;4967921;28;20097;-74
2022/11/25 09:12:57;;;;;;;9.07;2.47;;;11.60;99.90;;;;;;4965506;28;20061;-74
2022/11/25 09:15:23;;;;;;;8.63;2.60;;;12.00;99.90;;;;;;4991472;28;20038;-75
2022/11/25 09:17:56;;;;;;;8.77;2.60;;;12.30;99.90;;;;;;4989352;28;20092;-75
2022/11/25 09:20:21;;;;;;;8.07;2.53;;;12.60;99.90;;;;;;4971453;28;20038;-75
2022/11/25 09:22:47;;;;;;;7.00;2.40;;;12.80;99.90;;;;;;4991455;28;20046;-74
2022/11/25 09:25:13;;;;;;;6.07;2.90;;;13.00;99.90;;;;;;4983747;28;20377;-75
2022/11/25 09:27:42;;;;;;;7.78;2.45;;;13.20;99.90;;;;;;4970095;28;20797;-75
2022/11/25 09:30:08;;;;;;;4.15;2.17;;;13.10;99.90;;;;;;4972639;28;20097;-74
2022/11/25 09:32:33;;;;;;;7.25;2.33;;;13.00;99.90;;;;;;4983976;28;20038;-75
2022/11/25 09:34:59;;;;;;;8.23;2.33;;;12.90;99.90;;;;;;4986068;28;20049;-74
2022/11/25 09:37:25;;;;;;;5.32;2.00;;;12.80;99.90;;;;;;4965320;28;20133;-75
2022/11/25 09:39:54;;;;;;;6.75;2.22;;;12.90;99.90;;;;;;4979172;28;20459;-75
2022/11/25 09:49:02;;;;;;;6.80;2.20;;;13.50;99.90;;;;;;4985726;28;20426;-74
2022/11/25 09:51:57;;;;;;;8.27;2.22;;;14.00;99.90;;;;;;4984848;28;20436;-74
2022/11/25 09:54:33;;;;;;;6.82;2.20;;;14.30;99.90;;;;;;4983766;28;20047;-75
2022/11/25 09:57:26;;;;;;;4.88;1.75;;;14.60;99.90;;;;;;4983000;28;20046;-75
2022/11/25 10:00:01;;;;;;;5.38;1.75;;;14.70;99.90;;;;;;4982796;28;20089;-75
2022/11/25 10:02:38;;;;;;;8.23;2.20;;;14.80;99.90;;;;;;4989232;28;20042;-75
2022/11/25 10:05:20;;;;;;;5.22;2.20;;;15.10;99.90;;;;;;4964490;28;20042;-75
2022/11/25 10:07:50;;;;;;;4.18;1.90;;;15.20;99.90;;;;;;4979755;28;20360;-76
2022/11/25 10:10:25;;;;;;;7.05;1.98;;;15.20;99.90;;;;;;4974508;28;20518;-75
2022/11/25 10:12:53;;;;;;;6.07;1.85;;;15.40;99.90;;;;;;4982525;28;20087;-78
2022/11/25 10:15:45;;;;;;;4.22;1.40;;;15.60;99.90;;;;;;4983813;28;20034;-78
2022/11/25 10:18:33;;;;;;;4.60;1.75;;;15.70;99.90;;;;;;4980078;28;20035;-78
2022/11/25 10:20:59;;;;;;;6.13;2.00;;;15.30;99.90;;;;;;4983217;28;20050;-79
2022/11/25 10:23:33;;;;;;;5.25;1.80;;;15.50;99.90;;;;;;4990660;28;20052;-78
2022/11/25 10:26:14;;;;;;;5.82;2.08;;;15.50;99.90;;;;;;4994664;28;20054;-83
2022/11/25 10:29:02;;;;;;;5.00;2.00;;;15.70;99.90;;;;;;4988748;28;20407;-83
2022/11/25 10:31:34;;;;;;;6.72;2.05;;;15.70;99.90;;;;;;4964967;28;20050;-83
2022/11/25 10:34:04;;;;;;;4.85;1.83;;;15.70;99.90;;;;;;4989362;28;20041;-83
2022/11/25 10:36:33;;;;;;;7.22;1.90;;;16.00;99.90;;;;;;4981794;28;20451;-82
2022/11/25 10:39:06;;;;;;;7.57;2.03;;;16.00;99.90;;;;;;4996316;28;20049;-83
2022/11/25 10:41:41;;;;;;;6.25;1.90;;;15.80;99.90;;;;;;4971613;28;20100;-83
2022/11/25 10:44:21;;;;;;;5.45;1.90;;;15.50;99.90;;;;;;4984628;28;20066;-83
2022/11/25 10:47:11;;;;;;;6.43;2.08;;;15.40;99.90;;;;;;4978245;28;20046;-82
2022/11/25 10:50:07;;;;;;;8.00;1.95;;;15.20;99.90;;;;;;4994943;28;20521;-80
2022/11/25 10:52:39;;;;;;;8.50;2.10;;;14.80;99.90;;;;;;4981895;28;20038;-80
2022/11/25 10:55:25;;;;;;;8.05;1.92;;;14.30;99.90;;;;;;4994131;28;20499;-81
2022/11/25 10:57:52;;;;;;;8.50;2.42;;;13.90;99.90;;;;;;4968401;28;20042;-81
2022/11/25 11:00:37;;;;;;;4.95;1.77;;;13.60;99.90;;;;;;4970045;28;20105;-80
2022/11/25 11:03:24;;;;;;;7.28;2.03;;;13.40;99.90;;;;;;4984730;28;20039;-80
2022/11/25 11:05:52;;;;;;;6.07;1.75;;;13.20;99.90;;;;;;4970180;28;20039;-81
2022/11/25 11:08:18;;;;;;;6.82;1.83;;;13.00;99.90;;;;;;4970638;28;20061;-80
2022/11/25 11:10:45;;;;;;;9.13;1.73;;;13.00;99.90;;;;;;4993845;28;20035;-80
2022/11/25 11:13:20;;;;;;;7.22;2.13;;;13.10;99.90;;;;;;4988292;28;20305;-80
2022/11/25 11:15:46;;;;;;;6.25;1.83;;;13.50;99.90;;;;;;4984943;28;20073;-81
2022/11/25 11:18:29;;;;;;;7.63;1.80;;;14.20;99.90;;;;;;4985847;28;20041;-81
2022/11/25 11:20:59;;;;;;;6.85;2.00;;;14.80;99.90;;;;;;4993467;28;20050;-81
2022/11/25 11:23:27;;;;;;;11.45;2.47;;;15.50;99.90;;;;;;4985784;28;20066;-80
2022/11/25 11:26:05;;;;;;;8.45;1.77;;;15.80;99.90;;;;;;4984203;28;20042;-81
2022/11/25 11:28:33;;;;;;;6.22;2.00;;;16.20;99.90;;;;;;4986242;28;20503;-81
2022/11/25 11:31:01;;;;;;;5.85;1.73;;;16.20;99.90;;;;;;4986670;28;20039;-81
2022/11/25 11:33:34;;;;;;;5.97;1.90;;;16.10;99.90;;;;;;4993312;28;20045;-81
2022/11/25 11:36:11;;;;;;;6.57;1.92;;;16.20;99.90;;;;;;4985150;28;20105;-81
2022/11/25 11:38:51;;;;;;;7.00;1.73;;;16.20;99.90;;;;;;4994037;28;20374;-81
2022/11/25 11:41:46;;;;;;;5.78;1.63;;;16.40;99.90;;;;;;4987037;28;20474;-81
2022/11/25 11:44:38;;;;;;;7.10;2.17;;;16.50;99.90;;;;;;4982650;28;20105;-81
2022/11/25 11:47:24;;;;;;;5.43;1.83;;;16.70;99.90;;;;;;4986022;28;20081;-81
2022/11/25 11:49:55;;;;;;;6.88;1.90;;;16.90;99.90;;;;;;4970831;28;20046;-81
2022/11/25 11:52:49;;;;;;;8.30;1.75;;;16.50;99.90;;;;;;4972431;28;20081;-81
2022/11/25 11:55:42;;;;;;;10.20;1.83;;;15.60;99.90;;;;;;4976312;28;20100;-81
2022/11/25 11:58:39;;;;;;;8.35;1.92;;;15.20;99.90;;;;;;4993039;28;20105;-81
2022/11/25 12:01:14;;;;;;;9.68;1.90;;;15.60;99.90;;;;;;4975111;28;20041;-81
2022/11/25 12:03:51;;;;;;;9.27;2.40;;;16.10;99.90;;;;;;4969262;28;20081;-81
2022/11/25 12:06:17;;;;;;;;;;;16.80;99.90;;;;;;4987942;28;20073;-81
2022/11/25 12:08:51;;;;;;;7.95;1.80;;;16.90;99.90;;;;;;4985333;28;20408;-81
2022/11/25 12:11:24;;;;;;;7.18;1.92;;;16.50;99.90;;;;;;4982582;28;20046;-82
2022/11/25 12:14:08;;;;;;;7.43;1.70;;;16.20;99.90;;;;;;4992146;28;20050;-81
2022/11/25 12:16:51;;;;;;;8.77;1.98;;;16.00;99.90;;;;;;4968537;28;20045;-81
2022/11/25 12:19:35;;;;;;;7.32;1.92;;;16.10;99.90;;;;;;4980018;28;20030;-82
2022/11/25 12:22:18;;;;;;;9.60;2.10;;;16.20;99.90;;;;;;4983357;28;20113;-81
2022/11/25 12:24:57;;;;;;;9.55;1.65;;;16.10;99.90;;;;;;4991169;28;20133;-81
2022/11/25 12:27:31;;;;;;;7.85;1.63;;;16.00;99.90;;;;;;4970163;28;20034;-81
2022/11/25 12:30:13;;;;;;;8.32;1.83;;;16.30;99.90;;;;;;4983658;28;20101;-81
2022/11/25 12:33:16;;;;;;;13.52;1.88;;;16.70;99.90;;;;;;4991757;28;20394;-81
2022/11/25 12:36:02;;;;;;;7.82;1.90;;;17.10;99.90;;;;;;4983902;28;20043;-82
2022/11/25 12:38:42;;;;;;;8.40;1.42;;;17.00;99.90;;;;;;4984897;28;20375;-81
2022/11/25 12:41:29;;;;;;;11.60;1.92;;;16.50;99.90;;;;;;4989656;28;20044;-81
2022/11/25 12:44:21;;;;;;;10.13;2.00;;;15.80;99.90;;;;;;4974905;28;20042;-82
2022/11/25 12:46:52;;;;;;;11.82;1.77;;;15.30;99.90;;;;;;4991788;28;20125;-82
2022/11/25 12:49:23;;;;;;;6.95;1.52;;;15.20;99.90;;;;;;4981879;28;20184;-81
2022/11/25 12:52:25;;;;;;;8.13;1.75;;;15.10;99.90;;;;;;4984889;28;20042;-82
2022/11/25 12:55:12;;;;;;;10.07;1.63;;;14.60;99.90;;;;;;4981943;28;20562;-81
2022/11/25 12:57:53;;;;;;;8.32;1.70;;;14.40;99.90;;;;;;4982123;28;20046;-81
2022/11/25 13:00:24;;;;;;;9.93;1.77;;;14.20;99.90;;;;;;4982143;28;20042;-81
2022/11/25 13:03:11;;;;;;;9.05;1.45;;;14.10;99.90;;;;;;4981882;28;20053;-81
2022/11/25 13:05:55;;;;;;;;;;;14.00;99.90;;;;;;4986802;28;20038;-81
2022/11/25 13:08:43;;;;;;;8.65;1.50;;;14.00;99.90;;;;;;4990889;28;20458;-81
2022/11/25 13:11:30;;;;;;;12.48;1.90;;;13.80;99.90;;;;;;4990715;28;20049;-81
2022/11/25 13:13:56;;;;;;;6.90;1.55;;;13.80;99.90;;;;;;4991226;28;20046;-81
2022/11/25 13:16:22;;;;;;;10.13;1.92;;;13.80;99.90;;;;;;4990937;28;20126;-81
2022/11/25 13:18:48;;;;;;;;;;;13.70;99.90;;;;;;4986988;28;20042;-81